sensor_id;sensor_type;location;lat;lon;timestamp;temperature;humidity
54642;DHT22;40536;53.194;5.728;2023-09-07T00:00:01;19.90;99.90
54642;DHT22;40536;53.194;5.728;2023-09-07T00:02:26;19.90;99.90
54642;DHT22;40536;53.194;5.728;2023-09-07T00:04:52;19.90;99.90
54642;DHT22;40536;53.194;5.728;2023-09-07T00:07:17;19.90;99.90
54642;DHT22;40536;53.194;5.728;2023-09-07T00:09:43;19.90;99.90
54642;DHT22;40536;53.194;5.728;2023-09-07T00:12:09;19.90;99.90
54642;DHT22;40536;53.194;5.728;2023-09-07T00:14:35;19.90;99.90
54642;DHT22;40536;53.194;5.728;2023-09-07T00:17:00;19.90;99.90
54642;DHT22;40536;53.194;5.728;2023-09-07T00:19:26;19.90;99.90
54642;DHT22;40536;53.194;5.728;2023-09-07T00:21:52;19.90;99.90
54642;DHT22;40536;53.194;5.728;2023-09-07T00:24:18;19.80;99.90
54642;DHT22;40536;53.194;5.728;2023-09-07T00:26:45;19.80;99.90
54642;DHT22;40536;53.194;5.728;2023-09-07T00:29:10;19.80;99.90
54642;DHT22;40536;53.194;5.728;2023-09-07T00:31:36;19.80;99.90
54642;DHT22;40536;53.194;5.728;2023-09-07T00:34:02;19.80;99.90
54642;DHT22;40536;53.194;5.728;2023-09-07T00:36:28;19.80;99.90
54642;DHT22;40536;53.194;5.728;2023-09-07T00:38:53;19.70;99.90
54642;DHT22;40536;53.194;5.728;2023-09-07T00:41:19;19.70;99.90
54642;DHT22;40536;53.194;5.728;2023-09-07T00:43:44;19.80;99.90
54642;DHT22;40536;53.194;5.728;2023-09-07T00:46:10;19.70;99.90
54642;DHT22;40536;53.194;5.728;2023-09-07T00:48:37;19.70;99.90
54642;DHT22;40536;53.194;5.728;2023-09-07T00:51:03;19.70;99.90
54642;DHT22;40536;53.194;5.728;2023-09-07T00:53:29;19.60;99.90
54642;DHT22;40536;53.194;5.728;2023-09-07T00:55:55;19.60;99.90
54642;DHT22;40536;53.194;5.728;2023-09-07T00:58:22;19.60;99.90
54642;DHT22;40536;53.194;5.728;2023-09-07T01:00:48;19.60;99.90
54642;DHT22;40536;53.194;5.728;2023-09-07T01:03:14;19.50;99.90
54642;DHT22;40536;53.194;5.728;2023-09-07T01:05:47;19.50;99.90
54642;DHT22;40536;53.194;5.728;2023-09-07T01:08:28;19.50;99.90
54642;DHT22;40536;53.194;5.728;2023-09-07T01:10:54;19.40;99.90
54642;DHT22;40536;53.194;5.728;2023-09-07T01:13:21;19.40;99.90
54642;DHT22;40536;53.194;5.728;2023-09-07T01:15:47;19.30;99.90
54642;DHT22;40536;53.194;5.728;2023-09-07T01:18:14;19.30;99.90
54642;DHT22;40536;53.194;5.728;2023-09-07T01:20:41;19.20;99.90
54642;DHT22;40536;53.194;5.728;2023-09-07T01:23:07;19.10;99.90
54642;DHT22;40536;53.194;5.728;2023-09-07T01:25:33;19.10;99.90
54642;DHT22;40536;53.194;5.728;2023-09-07T01:27:59;19.00;99.90
54642;DHT22;40536;53.194;5.728;2023-09-07T01:30:27;19.00;99.90
54642;DHT22;40536;53.194;5.728;2023-09-07T01:32:53;19.00;99.90
54642;DHT22;40536;53.194;5.728;2023-09-07T01:35:20;19.00;99.90
54642;DHT22;40536;53.194;5.728;2023-09-07T01:37:47;18.90;99.90
54642;DHT22;40536;53.194;5.728;2023-09-07T01:40:13;18.90;99.90
54642;DHT22;40536;53.194;5.728;2023-09-07T01:42:39;18.80;99.90
54642;DHT22;40536;53.194;5.728;2023-09-07T01:45:05;18.80;99.90
54642;DHT22;40536;53.194;5.728;2023-09-07T01:47:31;18.80;99.90
54642;DHT22;40536;53.194;5.728;2023-09-07T01:49:56;18.80;99.90
54642;DHT22;40536;53.194;5.728;2023-09-07T01:52:22;18.70;99.90
54642;DHT22;40536;53.194;5.728;2023-09-07T01:54:48;18.70;99.90
54642;DHT22;40536;53.194;5.728;2023-09-07T01:57:13;18.70;99.90
54642;DHT22;40536;53.194;5.728;2023-09-07T01:59:39;18.70;99.90
54642;DHT22;40536;53.194;5.728;2023-09-07T02:02:05;18.70;99.90
54642;DHT22;40536;53.194;5.728;2023-09-07T02:04:30;18.70;99.90
54642;DHT22;40536;53.194;5.728;2023-09-07T02:06:56;18.70;99.90
54642;DHT22;40536;53.194;5.728;2023-09-07T02:09:22;18.70;99.90
54642;DHT22;40536;53.194;5.728;2023-09-07T02:11:47;18.70;99.90
54642;DHT22;40536;53.194;5.728;2023-09-07T02:14:13;18.70;99.90
54642;DHT22;40536;53.194;5.728;2023-09-07T02:16:38;18.70;99.90
54642;DHT22;40536;53.194;5.728;2023-09-07T02:19:06;18.60;99.90
54642;DHT22;40536;53.194;5.728;2023-09-07T02:21:32;18.60;99.90
54642;DHT22;40536;53.194;5.728;2023-09-07T02:23:58;18.60;99.90
54642;DHT22;40536;53.194;5.728;2023-09-07T02:26:24;18.60;99.90
54642;DHT22;40536;53.194;5.728;2023-09-07T02:28:49;18.60;99.90
54642;DHT22;40536;53.194;5.728;2023-09-07T02:31:15;18.60;99.90
54642;DHT22;40536;53.194;5.728;2023-09-07T02:33:41;18.60;99.90
54642;DHT22;40536;53.194;5.728;2023-09-07T02:36:06;18.50;99.90
54642;DHT22;40536;53.194;5.728;2023-09-07T02:38:32;18.50;99.90
54642;DHT22;40536;53.194;5.728;2023-09-07T02:40:58;18.50;99.90
54642;DHT22;40536;53.194;5.728;2023-09-07T02:43:24;18.50;99.90
54642;DHT22;40536;53.194;5.728;2023-09-07T02:45:50;18.50;99.90
54642;DHT22;40536;53.194;5.728;2023-09-07T02:48:16;18.50;99.90
54642;DHT22;40536;53.194;5.728;2023-09-07T02:50:41;18.50;99.90
54642;DHT22;40536;53.194;5.728;2023-09-07T02:53:08;18.50;99.90
54642;DHT22;40536;53.194;5.728;2023-09-07T02:55:33;18.50;99.90
54642;DHT22;40536;53.194;5.728;2023-09-07T02:58:02;18.40;99.90
54642;DHT22;40536;53.194;5.728;2023-09-07T03:00:28;18.40;99.90
54642;DHT22;40536;53.194;5.728;2023-09-07T03:02:54;18.40;99.90
54642;DHT22;40536;53.194;5.728;2023-09-07T03:05:19;18.30;99.90
54642;DHT22;40536;53.194;5.728;2023-09-07T03:07:46;18.30;99.90
54642;DHT22;40536;53.194;5.728;2023-09-07T03:10:12;18.20;99.90
54642;DHT22;40536;53.194;5.728;2023-09-07T03:12:38;18.20;99.90
54642;DHT22;40536;53.194;5.728;2023-09-07T03:15:05;18.20;99.90
54642;DHT22;40536;53.194;5.728;2023-09-07T03:17:31;18.10;99.90
54642;DHT22;40536;53.194;5.728;2023-09-07T03:19:57;18.10;99.90
54642;DHT22;40536;53.194;5.728;2023-09-07T03:22:23;18.10;99.90
54642;DHT22;40536;53.194;5.728;2023-09-07T03:24:52;18.00;99.90
54642;DHT22;40536;53.194;5.728;2023-09-07T03:27:18;18.00;99.90
54642;DHT22;40536;53.194;5.728;2023-09-07T03:29:50;17.90;99.90
54642;DHT22;40536;53.194;5.728;2023-09-07T03:32:17;17.90;99.90
54642;DHT22;40536;53.194;5.728;2023-09-07T03:34:42;17.80;99.90
54642;DHT22;40536;53.194;5.728;2023-09-07T03:37:08;17.80;99.90
54642;DHT22;40536;53.194;5.728;2023-09-07T03:39:37;17.70;99.90
54642;DHT22;40536;53.194;5.728;2023-09-07T03:42:02;17.70;99.90
54642;DHT22;40536;53.194;5.728;2023-09-07T03:44:28;17.70;99.90
54642;DHT22;40536;53.194;5.728;2023-09-07T03:46:53;17.60;99.90
54642;DHT22;40536;53.194;5.728;2023-09-07T03:49:19;17.60;99.90
54642;DHT22;40536;53.194;5.728;2023-09-07T03:51:45;17.60;99.90
54642;DHT22;40536;53.194;5.728;2023-09-07T03:54:10;17.60;99.90
54642;DHT22;40536;53.194;5.728;2023-09-07T03:56:36;17.50;99.90
54642;DHT22;40536;53.194;5.728;2023-09-07T03:59:01;17.50;99.90
54642;DHT22;40536;53.194;5.728;2023-09-07T04:01:28;17.50;99.90
54642;DHT22;40536;53.194;5.728;2023-09-07T04:03:53;17.50;99.90
54642;DHT22;40536;53.194;5.728;2023-09-07T04:06:19;17.40;99.90
54642;DHT22;40536;53.194;5.728;2023-09-07T04:08:45;17.40;99.90
54642;DHT22;40536;53.194;5.728;2023-09-07T04:11:10;17.40;99.90
54642;DHT22;40536;53.194;5.728;2023-09-07T04:13:36;17.40;99.90
54642;DHT22;40536;53.194;5.728;2023-09-07T04:16:02;17.30;99.90
54642;DHT22;40536;53.194;5.728;2023-09-07T04:18:30;17.30;99.90
54642;DHT22;40536;53.194;5.728;2023-09-07T04:21:05;17.30;99.90
54642;DHT22;40536;53.194;5.728;2023-09-07T04:23:31;17.30;99.90
54642;DHT22;40536;53.194;5.728;2023-09-07T04:26:05;17.30;99.90
54642;DHT22;40536;53.194;5.728;2023-09-07T04:28:31;17.20;99.90
54642;DHT22;40536;53.194;5.728;2023-09-07T04:30:56;17.20;99.90
54642;DHT22;40536;53.194;5.728;2023-09-07T04:33:22;17.30;99.90
54642;DHT22;40536;53.194;5.728;2023-09-07T04:35:48;17.20;99.90
54642;DHT22;40536;53.194;5.728;2023-09-07T04:38:13;17.20;99.90
54642;DHT22;40536;53.194;5.728;2023-09-07T04:40:39;17.20;99.90
54642;DHT22;40536;53.194;5.728;2023-09-07T04:43:04;17.30;99.90
54642;DHT22;40536;53.194;5.728;2023-09-07T04:45:30;17.20;99.90
54642;DHT22;40536;53.194;5.728;2023-09-07T04:47:55;17.20;99.90
54642;DHT22;40536;53.194;5.728;2023-09-07T04:50:21;17.30;99.90
54642;DHT22;40536;53.194;5.728;2023-09-07T04:52:47;17.30;99.90
54642;DHT22;40536;53.194;5.728;2023-09-07T04:55:12;17.30;99.90
54642;DHT22;40536;53.194;5.728;2023-09-07T04:57:38;17.40;99.90
54642;DHT22;40536;53.194;5.728;2023-09-07T05:00:06;17.40;99.90
54642;DHT22;40536;53.194;5.728;2023-09-07T05:02:31;17.40;99.90
54642;DHT22;40536;53.194;5.728;2023-09-07T05:04:57;17.40;99.90
54642;DHT22;40536;53.194;5.728;2023-09-07T05:07:23;17.40;99.90
54642;DHT22;40536;53.194;5.728;2023-09-07T05:09:48;17.40;99.90
54642;DHT22;40536;53.194;5.728;2023-09-07T05:12:16;17.40;99.90
54642;DHT22;40536;53.194;5.728;2023-09-07T05:14:43;17.50;99.90
54642;DHT22;40536;53.194;5.728;2023-09-07T05:17:09;17.40;99.90
54642;DHT22;40536;53.194;5.728;2023-09-07T05:19:35;17.50;99.90
54642;DHT22;40536;53.194;5.728;2023-09-07T05:22:00;17.50;99.90
54642;DHT22;40536;53.194;5.728;2023-09-07T05:24:26;17.50;99.90
54642;DHT22;40536;53.194;5.728;2023-09-07T05:26:51;17.50;99.90
54642;DHT22;40536;53.194;5.728;2023-09-07T05:29:17;17.40;99.90
54642;DHT22;40536;53.194;5.728;2023-09-07T05:31:43;17.50;99.90
54642;DHT22;40536;53.194;5.728;2023-09-07T05:34:08;17.50;99.90
54642;DHT22;40536;53.194;5.728;2023-09-07T05:36:34;17.60;99.90
54642;DHT22;40536;53.194;5.728;2023-09-07T05:38:59;17.60;99.90
54642;DHT22;40536;53.194;5.728;2023-09-07T05:41:27;17.80;99.90
54642;DHT22;40536;53.194;5.728;2023-09-07T05:43:53;17.80;99.90
54642;DHT22;40536;53.194;5.728;2023-09-07T05:46:18;17.90;99.90
54642;DHT22;40536;53.194;5.728;2023-09-07T05:48:44;18.00;99.90
54642;DHT22;40536;53.194;5.728;2023-09-07T05:51:10;18.20;99.90
54642;DHT22;40536;53.194;5.728;2023-09-07T05:53:35;18.30;99.90
54642;DHT22;40536;53.194;5.728;2023-09-07T05:56:01;18.40;99.90
54642;DHT22;40536;53.194;5.728;2023-09-07T05:58:26;18.60;99.90
54642;DHT22;40536;53.194;5.728;2023-09-07T06:00:52;18.70;99.90
54642;DHT22;40536;53.194;5.728;2023-09-07T06:03:18;18.90;99.90
54642;DHT22;40536;53.194;5.728;2023-09-07T06:05:44;19.20;99.90
54642;DHT22;40536;53.194;5.728;2023-09-07T06:08:10;19.30;99.90
54642;DHT22;40536;53.194;5.728;2023-09-07T06:10:36;19.40;99.90
54642;DHT22;40536;53.194;5.728;2023-09-07T06:13:01;19.50;99.90
54642;DHT22;40536;53.194;5.728;2023-09-07T06:15:28;19.60;99.90
54642;DHT22;40536;53.194;5.728;2023-09-07T06:17:54;19.70;99.90
54642;DHT22;40536;53.194;5.728;2023-09-07T06:20:20;19.90;99.90
54642;DHT22;40536;53.194;5.728;2023-09-07T06:22:45;20.10;99.90
54642;DHT22;40536;53.194;5.728;2023-09-07T06:25:11;20.30;99.90
54642;DHT22;40536;53.194;5.728;2023-09-07T06:27:37;20.50;99.90
54642;DHT22;40536;53.194;5.728;2023-09-07T06:30:05;20.80;99.90
54642;DHT22;40536;53.194;5.728;2023-09-07T06:32:31;21.10;99.90
54642;DHT22;40536;53.194;5.728;2023-09-07T06:34:57;21.40;99.90
54642;DHT22;40536;53.194;5.728;2023-09-07T06:37:24;21.80;99.90
54642;DHT22;40536;53.194;5.728;2023-09-07T06:39:50;22.10;99.90
54642;DHT22;40536;53.194;5.728;2023-09-07T06:42:16;22.10;99.90
54642;DHT22;40536;53.194;5.728;2023-09-07T06:44:41;22.10;99.90
54642;DHT22;40536;53.194;5.728;2023-09-07T06:47:08;22.20;99.90
54642;DHT22;40536;53.194;5.728;2023-09-07T06:49:34;22.50;99.90
54642;DHT22;40536;53.194;5.728;2023-09-07T06:52:00;22.80;99.90
54642;DHT22;40536;53.194;5.728;2023-09-07T06:54:28;23.20;99.90
54642;DHT22;40536;53.194;5.728;2023-09-07T06:56:53;23.50;99.90
54642;DHT22;40536;53.194;5.728;2023-09-07T06:59:19;23.80;99.90
54642;DHT22;40536;53.194;5.728;2023-09-07T07:01:45;24.00;99.90
54642;DHT22;40536;53.194;5.728;2023-09-07T07:04:10;24.20;99.90
54642;DHT22;40536;53.194;5.728;2023-09-07T07:06:36;24.30;99.90
54642;DHT22;40536;53.194;5.728;2023-09-07T07:09:02;24.50;99.90
54642;DHT22;40536;53.194;5.728;2023-09-07T07:11:27;24.60;99.90
54642;DHT22;40536;53.194;5.728;2023-09-07T07:13:53;24.70;99.90
54642;DHT22;40536;53.194;5.728;2023-09-07T07:16:21;24.70;99.90
54642;DHT22;40536;53.194;5.728;2023-09-07T07:18:47;25.00;99.90
54642;DHT22;40536;53.194;5.728;2023-09-07T07:21:12;25.30;99.90
54642;DHT22;40536;53.194;5.728;2023-09-07T07:23:38;25.60;99.90
54642;DHT22;40536;53.194;5.728;2023-09-07T07:26:03;26.00;99.90
54642;DHT22;40536;53.194;5.728;2023-09-07T07:28:29;26.30;99.90
54642;DHT22;40536;53.194;5.728;2023-09-07T07:30:55;26.70;99.90
54642;DHT22;40536;53.194;5.728;2023-09-07T07:33:21;26.90;99.90
54642;DHT22;40536;53.194;5.728;2023-09-07T07:35:47;27.10;99.90
54642;DHT22;40536;53.194;5.728;2023-09-07T07:38:14;27.30;99.90
54642;DHT22;40536;53.194;5.728;2023-09-07T07:40:40;27.40;99.90
54642;DHT22;40536;53.194;5.728;2023-09-07T07:43:06;27.60;99.90
54642;DHT22;40536;53.194;5.728;2023-09-07T07:45:32;27.80;99.90
54642;DHT22;40536;53.194;5.728;2023-09-07T07:48:02;27.90;99.90
54642;DHT22;40536;53.194;5.728;2023-09-07T07:50:27;28.10;99.90
54642;DHT22;40536;53.194;5.728;2023-09-07T07:52:54;28.30;99.90
54642;DHT22;40536;53.194;5.728;2023-09-07T07:55:20;28.50;99.90
54642;DHT22;40536;53.194;5.728;2023-09-07T07:57:46;28.60;99.90
54642;DHT22;40536;53.194;5.728;2023-09-07T08:00:12;28.80;99.90
54642;DHT22;40536;53.194;5.728;2023-09-07T08:02:38;28.90;99.90
54642;DHT22;40536;53.194;5.728;2023-09-07T08:05:03;29.30;99.90
54642;DHT22;40536;53.194;5.728;2023-09-07T08:07:30;29.50;99.90
54642;DHT22;40536;53.194;5.728;2023-09-07T08:09:56;29.60;99.90
54642;DHT22;40536;53.194;5.728;2023-09-07T08:12:21;29.80;99.90
54642;DHT22;40536;53.194;5.728;2023-09-07T08:14:47;30.10;99.90
54642;DHT22;40536;53.194;5.728;2023-09-07T08:17:13;30.20;99.90
54642;DHT22;40536;53.194;5.728;2023-09-07T08:19:38;30.30;99.90
54642;DHT22;40536;53.194;5.728;2023-09-07T08:22:05;30.40;99.90
54642;DHT22;40536;53.194;5.728;2023-09-07T08:24:32;30.40;99.90
54642;DHT22;40536;53.194;5.728;2023-09-07T08:26:57;30.40;99.90
54642;DHT22;40536;53.194;5.728;2023-09-07T08:29:26;30.50;99.90
54642;DHT22;40536;53.194;5.728;2023-09-07T08:31:53;30.60;99.90
54642;DHT22;40536;53.194;5.728;2023-09-07T08:34:19;30.80;99.90
54642;DHT22;40536;53.194;5.728;2023-09-07T08:36:46;30.90;99.90
54642;DHT22;40536;53.194;5.728;2023-09-07T08:39:12;31.10;99.90
54642;DHT22;40536;53.194;5.728;2023-09-07T08:41:40;31.20;99.90
54642;DHT22;40536;53.194;5.728;2023-09-07T08:44:15;31.10;99.90
54642;DHT22;40536;53.194;5.728;2023-09-07T08:46:41;31.30;99.90
54642;DHT22;40536;53.194;5.728;2023-09-07T08:49:08;31.50;99.90
54642;DHT22;40536;53.194;5.728;2023-09-07T08:51:34;31.40;99.90
54642;DHT22;40536;53.194;5.728;2023-09-07T08:54:03;31.50;99.90
54642;DHT22;40536;53.194;5.728;2023-09-07T08:56:28;31.20;99.90
54642;DHT22;40536;53.194;5.728;2023-09-07T08:58:54;31.40;99.90
54642;DHT22;40536;53.194;5.728;2023-09-07T09:01:20;31.50;99.90
54642;DHT22;40536;53.194;5.728;2023-09-07T09:03:48;31.80;99.90
54642;DHT22;40536;53.194;5.728;2023-09-07T09:06:16;31.90;99.90
54642;DHT22;40536;53.194;5.728;2023-09-07T09:08:56;31.90;99.90
54642;DHT22;40536;53.194;5.728;2023-09-07T09:11:23;32.10;99.90
54642;DHT22;40536;53.194;5.728;2023-09-07T09:13:51;32.30;99.90
54642;DHT22;40536;53.194;5.728;2023-09-07T09:16:17;32.60;99.90
54642;DHT22;40536;53.194;5.728;2023-09-07T09:18:55;33.00;99.90
54642;DHT22;40536;53.194;5.728;2023-09-07T09:21:23;33.20;98.90
54642;DHT22;40536;53.194;5.728;2023-09-07T09:23:51;33.60;99.70
54642;DHT22;40536;53.194;5.728;2023-09-07T09:26:17;33.70;99.20
54642;DHT22;40536;53.194;5.728;2023-09-07T09:28:43;33.60;98.70
54642;DHT22;40536;53.194;5.728;2023-09-07T09:31:13;33.50;98.50
54642;DHT22;40536;53.194;5.728;2023-09-07T09:33:40;33.40;98.50
54642;DHT22;40536;53.194;5.728;2023-09-07T09:36:06;33.50;98.70
54642;DHT22;40536;53.194;5.728;2023-09-07T09:38:33;33.60;98.70
54642;DHT22;40536;53.194;5.728;2023-09-07T09:40:59;33.90;98.80
54642;DHT22;40536;53.194;5.728;2023-09-07T09:43:25;34.40;98.80
54642;DHT22;40536;53.194;5.728;2023-09-07T09:45:52;34.60;98.10
54642;DHT22;40536;53.194;5.728;2023-09-07T09:48:22;34.70;97.70
54642;DHT22;40536;53.194;5.728;2023-09-07T09:50:48;34.60;96.70
54642;DHT22;40536;53.194;5.728;2023-09-07T09:53:18;34.70;97.20
54642;DHT22;40536;53.194;5.728;2023-09-07T09:55:49;35.10;97.50
54642;DHT22;40536;53.194;5.728;2023-09-07T09:58:15;35.60;97.30
54642;DHT22;40536;53.194;5.728;2023-09-07T10:00:45;35.90;97.50
54642;DHT22;40536;53.194;5.728;2023-09-07T10:03:26;36.20;97.40
54642;DHT22;40536;53.194;5.728;2023-09-07T10:05:53;36.60;96.90
54642;DHT22;40536;53.194;5.728;2023-09-07T10:08:20;37.00;96.90
54642;DHT22;40536;53.194;5.728;2023-09-07T10:10:49;37.10;96.60
54642;DHT22;40536;53.194;5.728;2023-09-07T10:13:31;37.10;96.50
54642;DHT22;40536;53.194;5.728;2023-09-07T10:16:03;37.20;96.00
54642;DHT22;40536;53.194;5.728;2023-09-07T10:18:39;37.10;96.10
54642;DHT22;40536;53.194;5.728;2023-09-07T10:21:06;36.90;96.10
54642;DHT22;40536;53.194;5.728;2023-09-07T10:23:38;36.90;96.30
54642;DHT22;40536;53.194;5.728;2023-09-07T10:26:05;36.80;95.90
54642;DHT22;40536;53.194;5.728;2023-09-07T10:28:35;36.90;96.30
54642;DHT22;40536;53.194;5.728;2023-09-07T10:31:05;37.00;96.30
54642;DHT22;40536;53.194;5.728;2023-09-07T10:33:33;37.10;96.30
54642;DHT22;40536;53.194;5.728;2023-09-07T10:35:59;37.30;96.30
54642;DHT22;40536;53.194;5.728;2023-09-07T10:38:26;37.20;96.10
54642;DHT22;40536;53.194;5.728;2023-09-07T10:40:56;37.00;96.00
54642;DHT22;40536;53.194;5.728;2023-09-07T10:43:27;37.00;95.80
54642;DHT22;40536;53.194;5.728;2023-09-07T10:45:56;36.70;96.00
54642;DHT22;40536;53.194;5.728;2023-09-07T10:48:28;36.70;96.20
54642;DHT22;40536;53.194;5.728;2023-09-07T10:50:54;36.70;96.00
54642;DHT22;40536;53.194;5.728;2023-09-07T10:53:30;36.80;95.90
54642;DHT22;40536;53.194;5.728;2023-09-07T10:56:03;36.80;95.30
54642;DHT22;40536;53.194;5.728;2023-09-07T10:58:34;36.70;95.70
54642;DHT22;40536;53.194;5.728;2023-09-07T11:01:01;36.80;95.70
54642;DHT22;40536;53.194;5.728;2023-09-07T11:03:27;37.10;95.90
54642;DHT22;40536;53.194;5.728;2023-09-07T11:06:19;37.30;95.90
54642;DHT22;40536;53.194;5.728;2023-09-07T11:08:46;37.40;95.40
54642;DHT22;40536;53.194;5.728;2023-09-07T11:11:12;37.40;95.50
54642;DHT22;40536;53.194;5.728;2023-09-07T11:13:39;37.40;95.30
54642;DHT22;40536;53.194;5.728;2023-09-07T11:16:08;37.40;95.20
54642;DHT22;40536;53.194;5.728;2023-09-07T11:18:35;37.60;95.40
54642;DHT22;40536;53.194;5.728;2023-09-07T11:21:02;37.80;95.40
54642;DHT22;40536;53.194;5.728;2023-09-07T11:23:33;37.50;94.90
54642;DHT22;40536;53.194;5.728;2023-09-07T11:26:10;37.40;95.20
54642;DHT22;40536;53.194;5.728;2023-09-07T11:28:35;37.30;95.10
54642;DHT22;40536;53.194;5.728;2023-09-07T11:31:02;37.10;95.10
54642;DHT22;40536;53.194;5.728;2023-09-07T11:33:32;36.80;95.00
54642;DHT22;40536;53.194;5.728;2023-09-07T11:35:57;36.50;94.80
54642;DHT22;40536;53.194;5.728;2023-09-07T11:38:27;36.60;95.20
54642;DHT22;40536;53.194;5.728;2023-09-07T11:40:53;36.60;95.10
54642;DHT22;40536;53.194;5.728;2023-09-07T11:43:19;36.60;95.40
54642;DHT22;40536;53.194;5.728;2023-09-07T11:45:46;36.60;95.50
54642;DHT22;40536;53.194;5.728;2023-09-07T11:48:11;36.70;95.60
54642;DHT22;40536;53.194;5.728;2023-09-07T11:50:38;36.60;95.60
54642;DHT22;40536;53.194;5.728;2023-09-07T11:53:04;36.50;95.60
54642;DHT22;40536;53.194;5.728;2023-09-07T11:55:31;36.40;95.70
54642;DHT22;40536;53.194;5.728;2023-09-07T11:57:56;36.30;95.70
54642;DHT22;40536;53.194;5.728;2023-09-07T12:00:23;36.20;96.00
54642;DHT22;40536;53.194;5.728;2023-09-07T12:02:49;36.20;95.90
54642;DHT22;40536;53.194;5.728;2023-09-07T12:05:14;36.10;95.90
54642;DHT22;40536;53.194;5.728;2023-09-07T12:07:41;35.90;96.00
54642;DHT22;40536;53.194;5.728;2023-09-07T12:10:08;35.70;96.20
54642;DHT22;40536;53.194;5.728;2023-09-07T12:12:39;35.60;96.30
54642;DHT22;40536;53.194;5.728;2023-09-07T12:15:05;35.60;96.50
54642;DHT22;40536;53.194;5.728;2023-09-07T12:17:34;35.50;96.40
54642;DHT22;40536;53.194;5.728;2023-09-07T12:20:00;35.60;96.60
54642;DHT22;40536;53.194;5.728;2023-09-07T12:22:26;35.50;96.40
54642;DHT22;40536;53.194;5.728;2023-09-07T12:24:52;35.50;96.40
54642;DHT22;40536;53.194;5.728;2023-09-07T12:27:18;35.30;96.10
54642;DHT22;40536;53.194;5.728;2023-09-07T12:29:45;35.10;96.20
54642;DHT22;40536;53.194;5.728;2023-09-07T12:32:10;35.00;96.50
54642;DHT22;40536;53.194;5.728;2023-09-07T12:34:37;35.00;96.70
54642;DHT22;40536;53.194;5.728;2023-09-07T12:37:03;34.90;96.60
54642;DHT22;40536;53.194;5.728;2023-09-07T12:39:34;34.90;96.80
54642;DHT22;40536;53.194;5.728;2023-09-07T12:42:00;34.90;96.70
54642;DHT22;40536;53.194;5.728;2023-09-07T12:44:26;34.80;96.60
54642;DHT22;40536;53.194;5.728;2023-09-07T12:46:52;34.50;96.20
54642;DHT22;40536;53.194;5.728;2023-09-07T12:49:18;34.20;96.20
54642;DHT22;40536;53.194;5.728;2023-09-07T12:51:45;34.20;96.20
54642;DHT22;40536;53.194;5.728;2023-09-07T12:54:12;34.10;95.80
54642;DHT22;40536;53.194;5.728;2023-09-07T12:56:37;33.90;95.60
54642;DHT22;40536;53.194;5.728;2023-09-07T12:59:03;33.60;95.40
54642;DHT22;40536;53.194;5.728;2023-09-07T13:01:29;33.20;95.20
54642;DHT22;40536;53.194;5.728;2023-09-07T13:03:56;33.10;95.90
54642;DHT22;40536;53.194;5.728;2023-09-07T13:06:22;33.00;96.40
54642;DHT22;40536;53.194;5.728;2023-09-07T13:08:47;33.00;96.70
54642;DHT22;40536;53.194;5.728;2023-09-07T13:11:13;33.10;97.20
54642;DHT22;40536;53.194;5.728;2023-09-07T13:13:39;33.20;97.10
54642;DHT22;40536;53.194;5.728;2023-09-07T13:16:04;33.30;97.20
54642;DHT22;40536;53.194;5.728;2023-09-07T13:18:32;33.40;97.20
54642;DHT22;40536;53.194;5.728;2023-09-07T13:20:58;33.50;97.40
54642;DHT22;40536;53.194;5.728;2023-09-07T13:23:29;33.50;97.30
54642;DHT22;40536;53.194;5.728;2023-09-07T13:25:55;33.50;97.20
54642;DHT22;40536;53.194;5.728;2023-09-07T13:28:22;33.60;97.20
54642;DHT22;40536;53.194;5.728;2023-09-07T13:30:49;33.50;97.00
54642;DHT22;40536;53.194;5.728;2023-09-07T13:33:15;33.50;97.10
54642;DHT22;40536;53.194;5.728;2023-09-07T13:35:41;33.50;97.10
54642;DHT22;40536;53.194;5.728;2023-09-07T13:38:07;33.70;97.20
54642;DHT22;40536;53.194;5.728;2023-09-07T13:40:32;33.80;97.20
54642;DHT22;40536;53.194;5.728;2023-09-07T13:42:58;33.90;97.00
54642;DHT22;40536;53.194;5.728;2023-09-07T13:45:23;33.80;97.00
54642;DHT22;40536;53.194;5.728;2023-09-07T13:47:49;33.70;96.90
54642;DHT22;40536;53.194;5.728;2023-09-07T13:50:15;33.50;97.00
54642;DHT22;40536;53.194;5.728;2023-09-07T13:52:40;33.50;97.20
54642;DHT22;40536;53.194;5.728;2023-09-07T13:55:06;33.30;97.40
54642;DHT22;40536;53.194;5.728;2023-09-07T13:57:33;33.20;97.50
54642;DHT22;40536;53.194;5.728;2023-09-07T13:59:58;33.10;97.40
54642;DHT22;40536;53.194;5.728;2023-09-07T14:02:24;33.10;97.70
54642;DHT22;40536;53.194;5.728;2023-09-07T14:04:50;32.90;97.50
54642;DHT22;40536;53.194;5.728;2023-09-07T14:07:15;32.90;97.60
54642;DHT22;40536;53.194;5.728;2023-09-07T14:09:41;32.90;97.60
54642;DHT22;40536;53.194;5.728;2023-09-07T14:12:07;33.10;97.70
54642;DHT22;40536;53.194;5.728;2023-09-07T14:14:32;33.20;97.50
54642;DHT22;40536;53.194;5.728;2023-09-07T14:16:58;33.20;97.40
54642;DHT22;40536;53.194;5.728;2023-09-07T14:19:26;33.30;97.30
54642;DHT22;40536;53.194;5.728;2023-09-07T14:21:56;33.20;96.80
54642;DHT22;40536;53.194;5.728;2023-09-07T14:24:22;33.10;96.60
54642;DHT22;40536;53.194;5.728;2023-09-07T14:26:47;32.90;96.50
54642;DHT22;40536;53.194;5.728;2023-09-07T14:29:13;32.80;96.40
54642;DHT22;40536;53.194;5.728;2023-09-07T14:31:39;32.50;96.40
54642;DHT22;40536;53.194;5.728;2023-09-07T14:34:04;32.40;96.00
54642;DHT22;40536;53.194;5.728;2023-09-07T14:36:30;32.30;96.30
54642;DHT22;40536;53.194;5.728;2023-09-07T14:38:56;32.30;96.20
54642;DHT22;40536;53.194;5.728;2023-09-07T14:41:21;32.30;96.40
54642;DHT22;40536;53.194;5.728;2023-09-07T14:43:48;32.20;96.30
54642;DHT22;40536;53.194;5.728;2023-09-07T14:46:15;32.20;96.10
54642;DHT22;40536;53.194;5.728;2023-09-07T14:48:41;32.10;95.90
54642;DHT22;40536;53.194;5.728;2023-09-07T14:51:06;32.00;96.20
54642;DHT22;40536;53.194;5.728;2023-09-07T14:53:32;32.00;96.60
54642;DHT22;40536;53.194;5.728;2023-09-07T14:55:58;32.00;96.50
54642;DHT22;40536;53.194;5.728;2023-09-07T14:58:23;32.10;96.60
54642;DHT22;40536;53.194;5.728;2023-09-07T15:00:49;32.00;96.40
54642;DHT22;40536;53.194;5.728;2023-09-07T15:03:14;32.00;96.60
54642;DHT22;40536;53.194;5.728;2023-09-07T15:05:40;32.00;96.80
54642;DHT22;40536;53.194;5.728;2023-09-07T15:08:06;31.90;96.30
54642;DHT22;40536;53.194;5.728;2023-09-07T15:10:33;31.90;96.30
54642;DHT22;40536;53.194;5.728;2023-09-07T15:13:00;31.80;96.10
54642;DHT22;40536;53.194;5.728;2023-09-07T15:15:28;31.70;96.10
54642;DHT22;40536;53.194;5.728;2023-09-07T15:17:54;31.70;96.30
54642;DHT22;40536;53.194;5.728;2023-09-07T15:20:20;31.70;96.60
54642;DHT22;40536;53.194;5.728;2023-09-07T15:22:46;31.70;96.60
54642;DHT22;40536;53.194;5.728;2023-09-07T15:25:11;31.70;96.80